»·PEaware :: N1345P KTUS-KPHX

N1345P :: KTUS-KPHX

FLIGHT INFORMATION

Flight Status: Arrived
Operator: Privately registered:
United States
More flights under this callsign
Pilot: Justin L. (35399)
Aircraft: BEECH AIRCRAFT BARON
(BE58)
More flights by this aircraft type
Origin: KTUS Tucson Intl
United States
Destination: KPHX Phoenix Sky Harbor Intl
United States
More flights between these airports :: More routes between these airports
Route: TUS V105 PXR
File this flight plan on PilotEdge
Remarks:
Altitude:
(Current/Filed)
8,000ft
Speed:
(Current/Filed)
130kts
Departed: 20-Sep-23 08:01 AM
Arrived: 20-Sep-23 09:00 AM
Distance/Time
Traveled:
96nm/0:59
Distance/Time
To Go:
Arrived

Flight Plot

Page will automatically refresh every two minutes.

Flight plan parsing failed; only flown route is shown


Map Options




Map Legend


Flown Route
Filed Route
Departure Airport
Arrival Airport
Navaid (VOR, NDB)
Fix

Horizontal Profiles

Position Reports

Time Latitude Longitude Heading Altitude Ground
Speed
20-Sep-23 07:39 32.121015 -110.939940 216 2594ft 0kts
20-Sep-23 07:40 32.121015 -110.939940 216 2594ft 0kts
20-Sep-23 07:41 32.121015 -110.939940 216 2594ft 0kts
20-Sep-23 07:42 32.121015 -110.939940 216 2594ft 0kts
20-Sep-23 07:43 32.121015 -110.939940 216 2594ft 0kts
20-Sep-23 07:44 32.121015 -110.939940 216 2594ft 0kts
20-Sep-23 07:45 32.121015 -110.939940 216 2594ft 0kts
20-Sep-23 07:46 32.121015 -110.939940 216 2594ft 0kts
20-Sep-23 07:47 32.121015 -110.939940 216 2594ft 0kts
20-Sep-23 07:48 32.121015 -110.939940 216 2594ft 0kts
20-Sep-23 07:49 32.121015 -110.939940 216 2594ft 0kts
20-Sep-23 07:50 32.121015 -110.939940 216 2594ft 0kts
20-Sep-23 07:51 32.120670 -110.942212 314 2590ft 22kts
20-Sep-23 07:52 32.124725 -110.947645 215 2572ft 0kts
20-Sep-23 07:53 32.124696 -110.947669 215 2572ft 0kts
20-Sep-23 07:54 32.124696 -110.947669 215 2572ft 0kts
20-Sep-23 07:55 32.124696 -110.947669 215 2572ft 0kts
20-Sep-23 07:56 32.124696 -110.947669 215 2572ft 0kts
20-Sep-23 07:57 32.124696 -110.947669 215 2572ft 0kts
20-Sep-23 07:58 32.124696 -110.947669 215 2572ft 0kts
20-Sep-23 07:59 32.124696 -110.947669 215 2572ft 0kts
20-Sep-23 08:00 32.121682 -110.945903 134 2581ft 63kts
20-Sep-23 08:01 32.100329 -110.922587 132 3279ft 111kts
20-Sep-23 08:02 32.079591 -110.893469 131 4298ft 117kts
20-Sep-23 08:03 32.059171 -110.863116 132 5316ft 120kts
20-Sep-23 08:04 32.037533 -110.868671 259 6233ft 130kts
20-Sep-23 08:05 32.058884 -110.899270 350 7148ft 139kts
20-Sep-23 08:06 32.096314 -110.914083 332 7902ft 146kts
20-Sep-23 08:07 32.118804 -110.951743 285 7964ft 138kts
20-Sep-23 08:08 32.137165 -110.998726 301 7973ft 170kts
20-Sep-23 08:09 32.161052 -111.044233 297 7933ft 157kts
20-Sep-23 08:10 32.182242 -111.088664 300 7932ft 151kts
20-Sep-23 08:11 32.204062 -111.132580 301 8010ft 154kts
20-Sep-23 08:13 32.226304 -111.175901 301 8007ft 153kts
20-Sep-23 08:14 32.248238 -111.219734 302 7978ft 154kts
20-Sep-23 08:15 32.269615 -111.263982 296 7969ft 154kts
20-Sep-23 08:16 32.291526 -111.307903 298 7959ft 154kts
20-Sep-23 08:17 32.313271 -111.352028 303 7944ft 155kts
20-Sep-23 08:18 32.335681 -111.395456 295 7952ft 153kts
20-Sep-23 08:19 32.357051 -111.439429 304 7961ft 153kts
20-Sep-23 08:20 32.381063 -111.481646 299 7963ft 153kts
20-Sep-23 08:21 32.407534 -111.521238 331 8004ft 157kts
20-Sep-23 08:22 32.445588 -111.545281 329 8061ft 155kts
20-Sep-23 08:23 32.482801 -111.572811 325 7989ft 157kts
20-Sep-23 08:24 32.518476 -111.603100 322 7969ft 158kts
20-Sep-23 08:25 32.554584 -111.632786 325 7986ft 157kts
20-Sep-23 08:26 32.590269 -111.663365 321 7985ft 157kts
20-Sep-23 08:27 32.626890 -111.692115 325 8007ft 156kts
20-Sep-23 08:28 32.661645 -111.723995 322 8008ft 156kts
20-Sep-23 08:29 32.698301 -111.752167 327 7998ft 158kts
20-Sep-23 08:30 32.733632 -111.782717 328 8039ft 155kts
20-Sep-23 08:31 32.769691 -111.812362 324 8003ft 158kts
20-Sep-23 08:32 32.805688 -111.841967 326 8034ft 156kts
20-Sep-23 08:33 32.841023 -111.872545 325 8050ft 157kts
20-Sep-23 08:34 32.877800 -111.900683 331 8057ft 156kts
20-Sep-23 08:35 32.920495 -111.912742 352 8033ft 156kts
20-Sep-23 08:36 32.963833 -111.917782 352 8000ft 159kts
20-Sep-23 08:37 33.006746 -111.922572 354 8089ft 153kts
20-Sep-23 08:37 33.043056 -111.926764 0 7994ft 158kts
20-Sep-23 08:39 33.093802 -111.931232 356 7972ft 156kts
20-Sep-23 08:40 33.134767 -111.947146 315 7884ft 159kts
20-Sep-23 08:41 33.154745 -111.994561 292 7298ft 161kts
20-Sep-23 08:41 33.174155 -112.032658 302 6918ft 159kts
20-Sep-23 08:42 33.196758 -112.077477 301 6901ft 156kts
20-Sep-23 08:44 33.223257 -112.129089 298 6953ft 154kts
20-Sep-23 08:45 33.243752 -112.173322 300 6942ft 153kts
20-Sep-23 08:45 33.261437 -112.208800 299 7003ft 149kts
20-Sep-23 08:46 33.283201 -112.251058 303 6683ft 149kts
20-Sep-23 08:47 33.305206 -112.292814 301 6042ft 146kts
20-Sep-23 08:48 33.325391 -112.334814 299 6019ft 141kts
20-Sep-23 08:49 33.362805 -112.342172 6 5400ft 134kts
20-Sep-23 08:50 33.396088 -112.328392 69 4827ft 134kts
20-Sep-23 08:51 33.410228 -112.287335 73 4425ft 144kts
20-Sep-23 08:52 33.425524 -112.246313 68 3952ft 115kts
20-Sep-23 08:53 33.429206 -112.207844 93 3983ft 117kts
20-Sep-23 08:54 33.426569 -112.169023 93 2932ft 113kts
20-Sep-23 08:55 33.427187 -112.135637 90 2675ft 109kts
20-Sep-23 08:56 33.427549 -112.097310 82 1963ft 117kts
20-Sep-23 08:57 33.429045 -112.058139 91 1713ft 123kts
20-Sep-23 08:58 33.428872 -112.021866 87 1113ft 78kts
20-Sep-23 08:59 33.428043 -112.016600 219 1116ft 12kts
20-Sep-23 09:00 33.426986 -112.021731 271 1113ft 2kts
20-Sep-23 09:01 33.426986 -112.021747 271 1113ft 0kts

Navigation Log

Ident Type
Flight plan parsing failed, navigation log unavailable